F/V Le Natif 2 — FKVW — position and weather

sailwx.info

Track history (hours):
 
Tides and Currents Weather Stations Pressure Air Temp Water Temp Dewpoint Dewpoint Depression Visibility Wind Speed Wind Dir Waves Ship Positions

F/V Le Natif 2

Last reported at 2014-Aug-22 11:27 UTC. Time now 2014-Aug-23 19:18 UTC.
Position N 46°42' W 001°56'.

Length 16 m.

Type: Fishing. MMSI: 228131600.

Date/timePositionNaut miles runAvg speedWind from/ knotsBaromVisibWave heightAir tempDewpointWater temp
2014-Aug-22 11:27N 46°42' W 001°56'0 0.0
2014-Aug-22 10:09N 46°42' W 001°56'0 0.0
2014-Aug-21 17:26N 46°42' W 001°57'0 0.1
2014-Aug-21 16:33N 46°42' W 001°56'4 4.1
2014-Aug-21 15:33N 46°39' W 002°01'8 7.9
2014-Aug-21 14:33N 46°33' W 002°09'1 0.6
2014-Aug-21 13:33N 46°33' W 002°10'1 0.9
2014-Aug-21 12:28N 46°33' W 002°08'2 2.0
2014-Aug-21 11:32N 46°34' W 002°11'5 2.3
2014-Aug-21 09:20N 46°39' W 002°11'1 0.5
2014-Aug-21 06:31N 46°39' W 002°13'0 0.3
2014-Aug-21 05:33N 46°40' W 002°13'9 8.5
2014-Aug-21 04:33N 46°41' W 002°01'3 0.3
2014-Aug-20 19:13N 46°42' W 001°56'0 0.0
2014-Aug-20 18:33N 46°42' W 001°56'3 3.1
2014-Aug-20 17:34N 46°40' W 002°01'8 7.9
2014-Aug-20 16:32N 46°40' W 002°12'1 0.5
2014-Aug-20 15:20N 46°40' W 002°13'1 0.8
2014-Aug-20 14:13N 46°39' W 002°12'1 1.3
2014-Aug-20 13:27N 46°39' W 002°14'3 2.9
2014-Aug-20 12:18N 46°36' W 002°14'3 3.5
2014-Aug-20 11:34N 46°33' W 002°13'3 1.2
2014-Aug-20 09:10N 46°36' W 002°14'2 3.2
2014-Aug-20 08:33N 46°34' W 002°13'1 0.9
2014-Aug-20 07:33N 46°34' W 002°12'1 1.1
2014-Aug-20 06:34N 46°35' W 002°11'2 1.9
2014-Aug-20 05:15N 46°36' W 002°08'6 8.6
2014-Aug-20 04:34N 46°39' W 002°01'4 0.3
2014-Aug-19 16:08N 46°42' W 001°57'0 0.2
2014-Aug-19 15:33N 46°42' W 001°56'1 0.5
2014-Aug-19 14:33N 46°42' W 001°57'9 9.1
2014-Aug-19 13:33N 46°35' W 002°07'4 2.9
2014-Aug-19 12:04N 46°34' W 002°13'2 3.5
2014-Aug-19 11:33N 46°32' W 002°12'1 0.9
2014-Aug-19 10:33N 46°31' W 002°12'2 1.8
2014-Aug-19 09:19N 46°34' W 002°13'1 1.1
2014-Aug-19 08:33N 46°33' W 002°12'2 2.0
2014-Aug-19 07:28N 46°35' W 002°14'2 2.1
2014-Aug-19 06:33N 46°33' W 002°14'14 0.9
2014-Aug-18 15:14N 46°42' W 001°57'0 0.0
2014-Aug-18 14:34N 46°42' W 001°57'2 2.1
2014-Aug-18 13:34N 46°41' W 001°59'10 8.6
2014-Aug-18 12:24N 46°37' W 002°13'2 1.2
2014-Aug-18 11:07N 46°35' W 002°13'2 3.4
2014-Aug-18 10:33N 46°34' W 002°14'1 0.3
2014-Aug-18 06:29N 46°33' W 002°16'6 6.8
2014-Aug-18 05:33N 46°35' W 002°07'8 8.3
2014-Aug-18 04:33N 46°41' W 001°58'2 0.1
2014-Aug-17 17:33N 46°42' W 001°56'0 0.0
2014-Aug-17 16:33N 46°42' W 001°56'6 5.5
2014-Aug-17 15:33N 46°38' W 002°02'9 4.4
2014-Aug-17 13:32N 46°32' W 002°12'2 1.8
2014-Aug-17 12:29N 46°32' W 002°15'2 2.5
2014-Aug-17 11:33N 46°30' W 002°15'0 0.4
2014-Aug-17 10:34N 46°30' W 002°14'1 1.2
2014-Aug-17 09:34N 46°31' W 002°14'3 2.5
2014-Aug-17 08:29N 46°34' W 002°12'7 7.9
2014-Aug-17 07:33N 46°30' W 002°03'1 0.9
2014-Aug-17 06:33N 46°30' W 002°04'4 4.2
2014-Aug-17 05:34N 46°34' W 002°03'9 8.6
2014-Aug-17 04:33N 46°41' W 001°57'1 0.6
2014-Aug-17 03:33N 46°42' W 001°56'  
2014-Aug-14 10:33N 46°42' W 001°56'0 0.0
2014-Aug-14 07:12N 46°42' W 001°56'0 0.0
2014-Aug-14 04:09N 46°42' W 001°56'0 0.0
2014-Aug-14 03:33N 46°42' W 001°56'5 4.6
2014-Aug-14 02:33N 46°37' W 001°56'8 8.4
2014-Aug-14 01:33N 46°29' W 001°53'9 8.5
2014-Aug-14 00:33N 46°21' W 001°50'9 8.8
2014-Aug-13 23:33N 46°12' W 001°47'  
Track history (hours):
 
Tides and Currents Weather Stations Pressure Air Temp Water Temp Dewpoint Dewpoint Depression Visibility Wind Speed Wind Dir Waves Ship Positions

F/V Le Natif 2

Last reported at 2014-Aug-22 11:27 UTC. Time now 2014-Aug-23 19:18 UTC.
Position N 46°42' W 001°56'.

Length 16 m.

Type: Fishing. MMSI: 228131600.

Date/timePositionNaut miles runAvg speedWind from/ knotsBaromVisibWave heightAir tempDewpointWater temp
2014-Aug-22 11:27N 46°42' W 001°56'0 0.0
2014-Aug-22 10:09N 46°42' W 001°56'0 0.0
2014-Aug-21 17:26N 46°42' W 001°57'0 0.1
2014-Aug-21 16:33N 46°42' W 001°56'4 4.1
2014-Aug-21 15:33N 46°39' W 002°01'8 7.9
2014-Aug-21 14:33N 46°33' W 002°09'1 0.6
2014-Aug-21 13:33N 46°33' W 002°10'1 0.9
2014-Aug-21 12:28N 46°33' W 002°08'2 2.0
2014-Aug-21 11:32N 46°34' W 002°11'5 2.3
2014-Aug-21 09:20N 46°39' W 002°11'1 0.5
2014-Aug-21 06:31N 46°39' W 002°13'0 0.3
2014-Aug-21 05:33N 46°40' W 002°13'9 8.5
2014-Aug-21 04:33N 46°41' W 002°01'3 0.3
2014-Aug-20 19:13N 46°42' W 001°56'0 0.0
2014-Aug-20 18:33N 46°42' W 001°56'3 3.1
2014-Aug-20 17:34N 46°40' W 002°01'8 7.9
2014-Aug-20 16:32N 46°40' W 002°12'1 0.5
2014-Aug-20 15:20N 46°40' W 002°13'1 0.8
2014-Aug-20 14:13N 46°39' W 002°12'1 1.3
2014-Aug-20 13:27N 46°39' W 002°14'3 2.9
2014-Aug-20 12:18N 46°36' W 002°14'3 3.5
2014-Aug-20 11:34N 46°33' W 002°13'3 1.2
2014-Aug-20 09:10N 46°36' W 002°14'2 3.2
2014-Aug-20 08:33N 46°34' W 002°13'1 0.9
2014-Aug-20 07:33N 46°34' W 002°12'1 1.1
2014-Aug-20 06:34N 46°35' W 002°11'2 1.9
2014-Aug-20 05:15N 46°36' W 002°08'6 8.6
2014-Aug-20 04:34N 46°39' W 002°01'4 0.3
2014-Aug-19 16:08N 46°42' W 001°57'0 0.2
2014-Aug-19 15:33N 46°42' W 001°56'1 0.5
2014-Aug-19 14:33N 46°42' W 001°57'9 9.1
2014-Aug-19 13:33N 46°35' W 002°07'4 2.9
2014-Aug-19 12:04N 46°34' W 002°13'2 3.5
2014-Aug-19 11:33N 46°32' W 002°12'1 0.9
2014-Aug-19 10:33N 46°31' W 002°12'2 1.8
2014-Aug-19 09:19N 46°34' W 002°13'1 1.1
2014-Aug-19 08:33N 46°33' W 002°12'2 2.0
2014-Aug-19 07:28N 46°35' W 002°14'2 2.1
2014-Aug-19 06:33N 46°33' W 002°14'14 0.9
2014-Aug-18 15:14N 46°42' W 001°57'0 0.0
2014-Aug-18 14:34N 46°42' W 001°57'2 2.1
2014-Aug-18 13:34N 46°41' W 001°59'10 8.6
2014-Aug-18 12:24N 46°37' W 002°13'2 1.2
2014-Aug-18 11:07N 46°35' W 002°13'2 3.4
2014-Aug-18 10:33N 46°34' W 002°14'1 0.3
2014-Aug-18 06:29N 46°33' W 002°16'6 6.8
2014-Aug-18 05:33N 46°35' W 002°07'8 8.3
2014-Aug-18 04:33N 46°41' W 001°58'2 0.1
2014-Aug-17 17:33N 46°42' W 001°56'0 0.0
2014-Aug-17 16:33N 46°42' W 001°56'6 5.5
2014-Aug-17 15:33N 46°38' W 002°02'9 4.4
2014-Aug-17 13:32N 46°32' W 002°12'2 1.8
2014-Aug-17 12:29N 46°32' W 002°15'2 2.5
2014-Aug-17 11:33N 46°30' W 002°15'0 0.4
2014-Aug-17 10:34N 46°30' W 002°14'1 1.2
2014-Aug-17 09:34N 46°31' W 002°14'3 2.5
2014-Aug-17 08:29N 46°34' W 002°12'7 7.9
2014-Aug-17 07:33N 46°30' W 002°03'1 0.9
2014-Aug-17 06:33N 46°30' W 002°04'4 4.2
2014-Aug-17 05:34N 46°34' W 002°03'9 8.6
2014-Aug-17 04:33N 46°41' W 001°57'1 0.6
2014-Aug-17 03:33N 46°42' W 001°56'  
2014-Aug-14 10:33N 46°42' W 001°56'0 0.0
2014-Aug-14 07:12N 46°42' W 001°56'0 0.0
2014-Aug-14 04:09N 46°42' W 001°56'0 0.0
2014-Aug-14 03:33N 46°42' W 001°56'5 4.6
2014-Aug-14 02:33N 46°37' W 001°56'8 8.4
2014-Aug-14 01:33N 46°29' W 001°53'9 8.5
2014-Aug-14 00:33N 46°21' W 001°50'9 8.8
2014-Aug-13 23:33N 46°12' W 001°47'  

Dump ship's entire track history